sensor_id;sensor_type;location;lat;lon;timestamp;P1;durP1;ratioP1;P2;durP2;ratioP2
21030;SDS011;61072;47.808;7.636;2023-05-10T00:00:19;2.30;;;0.50;;
21030;SDS011;61072;47.808;7.636;2023-05-10T00:02:48;0.52;;;0.52;;
21030;SDS011;61072;47.808;7.636;2023-05-10T00:05:15;0.30;;;0.30;;
21030;SDS011;61072;47.808;7.636;2023-05-10T00:07:42;1.95;;;0.60;;
21030;SDS011;61072;47.808;7.636;2023-05-10T00:10:11;2.85;;;0.50;;
21030;SDS011;61072;47.808;7.636;2023-05-10T00:12:37;2.53;;;0.50;;
21030;SDS011;61072;47.808;7.636;2023-05-10T00:15:04;1.85;;;0.40;;
21030;SDS011;61072;47.808;7.636;2023-05-10T00:17:32;0.40;;;0.40;;
21030;SDS011;61072;47.808;7.636;2023-05-10T00:19:58;0.40;;;0.40;;
21030;SDS011;61072;47.808;7.636;2023-05-10T00:22:26;7.13;;;0.77;;
21030;SDS011;61072;47.808;7.636;2023-05-10T00:24:53;1.70;;;0.40;;
21030;SDS011;61072;47.808;7.636;2023-05-10T00:27:19;2.05;;;0.63;;
21030;SDS011;61072;47.808;7.636;2023-05-10T00:29:46;1.90;;;0.38;;
21030;SDS011;61072;47.808;7.636;2023-05-10T00:32:13;0.70;;;0.50;;
21030;SDS011;61072;47.808;7.636;2023-05-10T00:34:40;0.60;;;0.60;;
21030;SDS011;61072;47.808;7.636;2023-05-10T00:37:06;0.68;;;0.57;;
21030;SDS011;61072;47.808;7.636;2023-05-10T00:39:33;5.85;;;0.60;;
21030;SDS011;61072;47.808;7.636;2023-05-10T00:42:00;1.92;;;0.63;;
21030;SDS011;61072;47.808;7.636;2023-05-10T00:44:27;2.08;;;0.55;;
21030;SDS011;61072;47.808;7.636;2023-05-10T00:46:53;0.70;;;0.50;;
21030;SDS011;61072;47.808;7.636;2023-05-10T00:49:20;0.85;;;0.57;;
21030;SDS011;61072;47.808;7.636;2023-05-10T00:51:47;1.17;;;0.60;;
21030;SDS011;61072;47.808;7.636;2023-05-10T00:54:15;0.73;;;0.60;;
21030;SDS011;61072;47.808;7.636;2023-05-10T00:56:42;2.58;;;0.50;;
21030;SDS011;61072;47.808;7.636;2023-05-10T00:59:15;2.92;;;0.55;;
21030;SDS011;61072;47.808;7.636;2023-05-10T01:01:43;1.20;;;0.60;;
21030;SDS011;61072;47.808;7.636;2023-05-10T01:04:14;0.80;;;0.50;;
21030;SDS011;61072;47.808;7.636;2023-05-10T01:09:08;1.70;;;0.63;;
21030;SDS011;61072;47.808;7.636;2023-05-10T01:11:36;1.30;;;1.17;;
21030;SDS011;61072;47.808;7.636;2023-05-10T01:14:04;0.40;;;0.40;;
21030;SDS011;61072;47.808;7.636;2023-05-10T01:16:32;2.97;;;0.65;;
21030;SDS011;61072;47.808;7.636;2023-05-10T01:19:04;5.32;;;0.60;;
21030;SDS011;61072;47.808;7.636;2023-05-10T01:21:52;0.80;;;0.60;;
21030;SDS011;61072;47.808;7.636;2023-05-10T01:27:10;2.05;;;0.70;;
21030;SDS011;61072;47.808;7.636;2023-05-10T01:32:54;1.35;;;0.80;;
21030;SDS011;61072;47.808;7.636;2023-05-10T01:38:07;1.38;;;0.70;;
21030;SDS011;61072;47.808;7.636;2023-05-10T01:46:14;1.17;;;0.70;;
21030;SDS011;61072;47.808;7.636;2023-05-10T01:48:47;4.55;;;1.20;;
21030;SDS011;61072;47.808;7.636;2023-05-10T01:51:19;3.30;;;0.70;;
21030;SDS011;61072;47.808;7.636;2023-05-10T01:53:50;0.95;;;0.88;;
21030;SDS011;61072;47.808;7.636;2023-05-10T01:56:20;0.93;;;0.90;;
21030;SDS011;61072;47.808;7.636;2023-05-10T01:58:52;3.30;;;0.75;;
21030;SDS011;61072;47.808;7.636;2023-05-10T02:01:20;0.98;;;0.80;;
21030;SDS011;61072;47.808;7.636;2023-05-10T02:03:48;4.05;;;0.90;;
21030;SDS011;61072;47.808;7.636;2023-05-10T02:06:18;1.70;;;0.80;;
21030;SDS011;61072;47.808;7.636;2023-05-10T02:08:48;0.73;;;0.70;;
21030;SDS011;61072;47.808;7.636;2023-05-10T02:11:16;1.70;;;0.88;;
21030;SDS011;61072;47.808;7.636;2023-05-10T02:13:45;1.00;;;0.70;;
21030;SDS011;61072;47.808;7.636;2023-05-10T02:16:14;0.88;;;0.80;;
21030;SDS011;61072;47.808;7.636;2023-05-10T02:18:44;0.80;;;0.63;;
21030;SDS011;61072;47.808;7.636;2023-05-10T02:21:12;4.15;;;0.88;;
21030;SDS011;61072;47.808;7.636;2023-05-10T02:23:41;3.45;;;1.13;;
21030;SDS011;61072;47.808;7.636;2023-05-10T02:26:09;1.48;;;0.60;;
21030;SDS011;61072;47.808;7.636;2023-05-10T02:28:38;3.75;;;0.75;;
21030;SDS011;61072;47.808;7.636;2023-05-10T02:31:06;1.15;;;0.85;;
21030;SDS011;61072;47.808;7.636;2023-05-10T02:33:36;1.15;;;1.00;;
21030;SDS011;61072;47.808;7.636;2023-05-10T02:36:07;2.10;;;0.90;;
21030;SDS011;61072;47.808;7.636;2023-05-10T02:38:34;4.05;;;1.10;;
21030;SDS011;61072;47.808;7.636;2023-05-10T02:41:03;2.10;;;1.17;;
21030;SDS011;61072;47.808;7.636;2023-05-10T02:43:32;1.05;;;0.80;;
21030;SDS011;61072;47.808;7.636;2023-05-10T02:45:59;2.65;;;1.10;;
21030;SDS011;61072;47.808;7.636;2023-05-10T02:48:27;2.10;;;1.20;;
21030;SDS011;61072;47.808;7.636;2023-05-10T02:50:54;1.38;;;1.00;;
21030;SDS011;61072;47.808;7.636;2023-05-10T02:53:33;1.10;;;0.77;;
21030;SDS011;61072;47.808;7.636;2023-05-10T02:56:04;1.10;;;0.82;;
21030;SDS011;61072;47.808;7.636;2023-05-10T02:58:35;1.02;;;0.80;;
21030;SDS011;61072;47.808;7.636;2023-05-10T03:01:02;2.90;;;0.95;;
21030;SDS011;61072;47.808;7.636;2023-05-10T03:03:28;2.47;;;0.80;;
21030;SDS011;61072;47.808;7.636;2023-05-10T03:05:55;1.02;;;0.90;;
21030;SDS011;61072;47.808;7.636;2023-05-10T03:08:22;2.15;;;1.08;;
21030;SDS011;61072;47.808;7.636;2023-05-10T03:10:55;0.75;;;0.70;;
21030;SDS011;61072;47.808;7.636;2023-05-10T03:13:39;1.17;;;0.55;;
21030;SDS011;61072;47.808;7.636;2023-05-10T03:16:32;1.15;;;0.60;;
21030;SDS011;61072;47.808;7.636;2023-05-10T03:19:21;3.35;;;0.85;;
21030;SDS011;61072;47.808;7.636;2023-05-10T03:21:52;3.25;;;0.60;;
21030;SDS011;61072;47.808;7.636;2023-05-10T03:24:21;4.75;;;1.25;;
21030;SDS011;61072;47.808;7.636;2023-05-10T03:26:49;3.33;;;0.60;;
21030;SDS011;61072;47.808;7.636;2023-05-10T03:29:18;0.60;;;0.60;;
21030;SDS011;61072;47.808;7.636;2023-05-10T03:31:46;0.75;;;0.68;;
21030;SDS011;61072;47.808;7.636;2023-05-10T03:34:13;1.35;;;0.77;;
21030;SDS011;61072;47.808;7.636;2023-05-10T03:36:39;0.82;;;0.80;;
21030;SDS011;61072;47.808;7.636;2023-05-10T03:39:06;1.83;;;0.70;;
21030;SDS011;61072;47.808;7.636;2023-05-10T03:41:33;2.42;;;1.00;;
21030;SDS011;61072;47.808;7.636;2023-05-10T03:43:59;1.60;;;0.90;;
21030;SDS011;61072;47.808;7.636;2023-05-10T03:46:26;1.98;;;0.95;;
21030;SDS011;61072;47.808;7.636;2023-05-10T03:48:53;1.17;;;0.80;;
21030;SDS011;61072;47.808;7.636;2023-05-10T03:51:20;0.98;;;0.90;;
21030;SDS011;61072;47.808;7.636;2023-05-10T03:53:46;1.02;;;0.82;;
21030;SDS011;61072;47.808;7.636;2023-05-10T03:56:13;2.42;;;1.10;;
21030;SDS011;61072;47.808;7.636;2023-05-10T03:58:40;2.88;;;1.00;;
21030;SDS011;61072;47.808;7.636;2023-05-10T04:01:07;2.58;;;0.80;;
21030;SDS011;61072;47.808;7.636;2023-05-10T04:03:34;2.55;;;1.13;;
21030;SDS011;61072;47.808;7.636;2023-05-10T04:06:02;1.50;;;1.08;;
21030;SDS011;61072;47.808;7.636;2023-05-10T04:08:29;1.63;;;1.17;;
21030;SDS011;61072;47.808;7.636;2023-05-10T04:11:06;3.90;;;1.17;;
21030;SDS011;61072;47.808;7.636;2023-05-10T04:13:37;0.77;;;0.77;;
21030;SDS011;61072;47.808;7.636;2023-05-10T04:16:04;1.15;;;1.02;;
21030;SDS011;61072;47.808;7.636;2023-05-10T04:18:31;1.85;;;1.10;;
21030;SDS011;61072;47.808;7.636;2023-05-10T04:20:58;2.58;;;1.17;;
21030;SDS011;61072;47.808;7.636;2023-05-10T04:23:24;3.70;;;1.00;;
21030;SDS011;61072;47.808;7.636;2023-05-10T04:25:58;1.55;;;1.17;;
21030;SDS011;61072;47.808;7.636;2023-05-10T04:28:25;4.00;;;1.05;;
21030;SDS011;61072;47.808;7.636;2023-05-10T04:30:53;4.95;;;1.55;;
21030;SDS011;61072;47.808;7.636;2023-05-10T04:33:26;4.53;;;1.48;;
21030;SDS011;61072;47.808;7.636;2023-05-10T04:35:53;1.70;;;1.08;;
21030;SDS011;61072;47.808;7.636;2023-05-10T04:38:19;1.33;;;0.77;;
21030;SDS011;61072;47.808;7.636;2023-05-10T04:40:46;4.32;;;1.48;;
21030;SDS011;61072;47.808;7.636;2023-05-10T04:43:13;4.78;;;0.88;;
21030;SDS011;61072;47.808;7.636;2023-05-10T04:45:40;1.10;;;0.70;;
21030;SDS011;61072;47.808;7.636;2023-05-10T04:48:06;2.60;;;1.30;;
21030;SDS011;61072;47.808;7.636;2023-05-10T04:50:33;1.20;;;1.05;;
21030;SDS011;61072;47.808;7.636;2023-05-10T04:53:00;0.80;;;0.80;;
21030;SDS011;61072;47.808;7.636;2023-05-10T04:55:27;2.53;;;1.52;;
21030;SDS011;61072;47.808;7.636;2023-05-10T04:57:53;2.58;;;1.33;;
21030;SDS011;61072;47.808;7.636;2023-05-10T05:00:23;3.42;;;0.90;;
21030;SDS011;61072;47.808;7.636;2023-05-10T05:02:50;3.17;;;1.20;;
21030;SDS011;61072;47.808;7.636;2023-05-10T05:05:17;3.08;;;1.25;;
21030;SDS011;61072;47.808;7.636;2023-05-10T05:07:44;1.05;;;0.90;;
21030;SDS011;61072;47.808;7.636;2023-05-10T05:10:11;2.72;;;0.90;;
21030;SDS011;61072;47.808;7.636;2023-05-10T05:12:38;2.60;;;0.90;;
21030;SDS011;61072;47.808;7.636;2023-05-10T05:15:05;1.02;;;0.68;;
21030;SDS011;61072;47.808;7.636;2023-05-10T05:17:35;0.90;;;0.63;;
21030;SDS011;61072;47.808;7.636;2023-05-10T05:20:02;2.88;;;1.00;;
21030;SDS011;61072;47.808;7.636;2023-05-10T05:22:29;0.70;;;0.60;;
21030;SDS011;61072;47.808;7.636;2023-05-10T05:24:56;2.28;;;0.73;;
21030;SDS011;61072;47.808;7.636;2023-05-10T05:27:24;2.30;;;0.90;;
21030;SDS011;61072;47.808;7.636;2023-05-10T05:29:55;2.83;;;0.75;;
21030;SDS011;61072;47.808;7.636;2023-05-10T05:32:22;2.50;;;0.80;;
21030;SDS011;61072;47.808;7.636;2023-05-10T05:34:50;3.05;;;1.05;;
21030;SDS011;61072;47.808;7.636;2023-05-10T05:37:18;2.67;;;0.80;;
21030;SDS011;61072;47.808;7.636;2023-05-10T05:39:45;1.25;;;0.70;;
21030;SDS011;61072;47.808;7.636;2023-05-10T05:42:12;1.80;;;0.60;;
21030;SDS011;61072;47.808;7.636;2023-05-10T05:44:39;1.80;;;0.70;;
21030;SDS011;61072;47.808;7.636;2023-05-10T05:47:06;1.90;;;0.82;;
21030;SDS011;61072;47.808;7.636;2023-05-10T05:49:33;3.95;;;0.95;;
21030;SDS011;61072;47.808;7.636;2023-05-10T05:52:00;0.90;;;0.60;;
21030;SDS011;61072;47.808;7.636;2023-05-10T05:54:28;0.80;;;0.80;;
21030;SDS011;61072;47.808;7.636;2023-05-10T05:56:56;2.67;;;0.90;;
21030;SDS011;61072;47.808;7.636;2023-05-10T05:59:26;1.92;;;1.00;;
21030;SDS011;61072;47.808;7.636;2023-05-10T06:01:53;2.20;;;1.00;;
21030;SDS011;61072;47.808;7.636;2023-05-10T06:04:20;1.80;;;0.75;;
21030;SDS011;61072;47.808;7.636;2023-05-10T06:06:47;1.92;;;0.98;;
21030;SDS011;61072;47.808;7.636;2023-05-10T06:09:13;6.15;;;1.15;;
21030;SDS011;61072;47.808;7.636;2023-05-10T06:11:40;6.40;;;1.20;;
21030;SDS011;61072;47.808;7.636;2023-05-10T06:14:07;6.95;;;1.20;;
21030;SDS011;61072;47.808;7.636;2023-05-10T06:16:34;5.18;;;1.13;;
21030;SDS011;61072;47.808;7.636;2023-05-10T06:19:01;1.90;;;0.90;;
21030;SDS011;61072;47.808;7.636;2023-05-10T06:21:28;2.17;;;0.80;;
21030;SDS011;61072;47.808;7.636;2023-05-10T06:23:56;2.00;;;1.00;;
21030;SDS011;61072;47.808;7.636;2023-05-10T06:26:23;4.18;;;1.15;;
21030;SDS011;61072;47.808;7.636;2023-05-10T06:28:49;1.73;;;0.98;;
21030;SDS011;61072;47.808;7.636;2023-05-10T06:31:16;3.08;;;0.93;;
21030;SDS011;61072;47.808;7.636;2023-05-10T06:33:43;2.58;;;0.90;;
21030;SDS011;61072;47.808;7.636;2023-05-10T06:36:10;5.60;;;1.13;;
21030;SDS011;61072;47.808;7.636;2023-05-10T06:38:37;1.77;;;0.80;;
21030;SDS011;61072;47.808;7.636;2023-05-10T06:41:04;3.60;;;1.27;;
21030;SDS011;61072;47.808;7.636;2023-05-10T06:43:31;2.45;;;0.90;;
21030;SDS011;61072;47.808;7.636;2023-05-10T06:45:58;3.05;;;1.13;;
21030;SDS011;61072;47.808;7.636;2023-05-10T06:48:25;2.22;;;0.95;;
21030;SDS011;61072;47.808;7.636;2023-05-10T06:50:51;5.30;;;1.50;;
21030;SDS011;61072;47.808;7.636;2023-05-10T06:53:18;4.00;;;1.50;;
21030;SDS011;61072;47.808;7.636;2023-05-10T06:55:45;2.83;;;1.30;;
21030;SDS011;61072;47.808;7.636;2023-05-10T06:58:12;3.00;;;1.55;;
21030;SDS011;61072;47.808;7.636;2023-05-10T07:00:39;2.92;;;1.40;;
21030;SDS011;61072;47.808;7.636;2023-05-10T07:03:06;2.33;;;1.13;;
21030;SDS011;61072;47.808;7.636;2023-05-10T07:05:33;3.88;;;1.05;;
21030;SDS011;61072;47.808;7.636;2023-05-10T07:08:00;3.22;;;0.90;;
21030;SDS011;61072;47.808;7.636;2023-05-10T07:10:27;2.72;;;1.20;;
21030;SDS011;61072;47.808;7.636;2023-05-10T07:12:54;3.00;;;1.10;;
21030;SDS011;61072;47.808;7.636;2023-05-10T07:15:21;3.08;;;1.15;;
21030;SDS011;61072;47.808;7.636;2023-05-10T07:17:48;3.03;;;0.80;;
21030;SDS011;61072;47.808;7.636;2023-05-10T07:20:15;3.17;;;1.58;;
21030;SDS011;61072;47.808;7.636;2023-05-10T07:22:42;3.95;;;1.17;;
21030;SDS011;61072;47.808;7.636;2023-05-10T07:25:09;2.17;;;1.00;;
21030;SDS011;61072;47.808;7.636;2023-05-10T07:27:35;4.13;;;0.95;;
21030;SDS011;61072;47.808;7.636;2023-05-10T07:30:02;2.30;;;0.82;;
21030;SDS011;61072;47.808;7.636;2023-05-10T07:32:29;2.85;;;0.80;;
21030;SDS011;61072;47.808;7.636;2023-05-10T07:34:56;3.92;;;1.00;;
21030;SDS011;61072;47.808;7.636;2023-05-10T07:37:23;2.35;;;0.70;;
21030;SDS011;61072;47.808;7.636;2023-05-10T07:39:50;4.40;;;0.82;;
21030;SDS011;61072;47.808;7.636;2023-05-10T07:42:16;5.68;;;1.20;;
21030;SDS011;61072;47.808;7.636;2023-05-10T07:44:43;6.22;;;0.90;;
21030;SDS011;61072;47.808;7.636;2023-05-10T07:47:10;4.32;;;0.98;;
21030;SDS011;61072;47.808;7.636;2023-05-10T07:49:37;2.15;;;1.10;;
21030;SDS011;61072;47.808;7.636;2023-05-10T07:52:04;4.07;;;0.85;;
21030;SDS011;61072;47.808;7.636;2023-05-10T07:54:31;2.83;;;0.90;;
21030;SDS011;61072;47.808;7.636;2023-05-10T07:56:57;4.78;;;0.98;;
21030;SDS011;61072;47.808;7.636;2023-05-10T07:59:25;3.10;;;0.93;;
21030;SDS011;61072;47.808;7.636;2023-05-10T08:01:52;4.35;;;1.00;;
21030;SDS011;61072;47.808;7.636;2023-05-10T08:04:19;1.58;;;0.75;;
21030;SDS011;61072;47.808;7.636;2023-05-10T08:06:46;1.58;;;0.90;;
21030;SDS011;61072;47.808;7.636;2023-05-10T08:09:12;4.05;;;1.02;;
21030;SDS011;61072;47.808;7.636;2023-05-10T08:11:39;3.13;;;0.80;;
21030;SDS011;61072;47.808;7.636;2023-05-10T08:14:06;14.15;;;1.27;;
21030;SDS011;61072;47.808;7.636;2023-05-10T08:16:32;3.30;;;0.88;;
21030;SDS011;61072;47.808;7.636;2023-05-10T08:19:00;3.45;;;0.90;;
21030;SDS011;61072;47.808;7.636;2023-05-10T08:21:27;3.35;;;0.77;;
21030;SDS011;61072;47.808;7.636;2023-05-10T08:23:54;2.28;;;0.75;;
21030;SDS011;61072;47.808;7.636;2023-05-10T08:26:21;2.83;;;0.82;;
21030;SDS011;61072;47.808;7.636;2023-05-10T08:28:48;8.35;;;0.93;;
21030;SDS011;61072;47.808;7.636;2023-05-10T08:31:15;5.53;;;0.90;;
21030;SDS011;61072;47.808;7.636;2023-05-10T08:33:42;7.00;;;0.98;;
21030;SDS011;61072;47.808;7.636;2023-05-10T08:36:11;2.72;;;0.98;;
21030;SDS011;61072;47.808;7.636;2023-05-10T08:38:40;3.97;;;0.77;;
21030;SDS011;61072;47.808;7.636;2023-05-10T08:41:07;4.43;;;1.02;;
21030;SDS011;61072;47.808;7.636;2023-05-10T08:43:33;6.63;;;0.80;;
21030;SDS011;61072;47.808;7.636;2023-05-10T08:46:02;3.13;;;0.60;;
21030;SDS011;61072;47.808;7.636;2023-05-10T08:48:31;5.95;;;0.63;;
21030;SDS011;61072;47.808;7.636;2023-05-10T08:51:00;2.22;;;0.68;;
21030;SDS011;61072;47.808;7.636;2023-05-10T08:53:28;1.98;;;0.60;;
21030;SDS011;61072;47.808;7.636;2023-05-10T08:55:57;1.27;;;0.50;;
21030;SDS011;61072;47.808;7.636;2023-05-10T08:58:24;2.78;;;0.93;;
21030;SDS011;61072;47.808;7.636;2023-05-10T09:00:51;2.35;;;0.80;;
21030;SDS011;61072;47.808;7.636;2023-05-10T09:03:19;4.00;;;0.60;;
21030;SDS011;61072;47.808;7.636;2023-05-10T09:05:46;2.47;;;0.60;;
21030;SDS011;61072;47.808;7.636;2023-05-10T09:08:14;2.17;;;0.70;;
21030;SDS011;61072;47.808;7.636;2023-05-10T09:13:13;1.67;;;0.60;;
21030;SDS011;61072;47.808;7.636;2023-05-10T09:18:11;3.58;;;0.60;;
21030;SDS011;61072;47.808;7.636;2023-05-10T09:20:39;1.80;;;0.45;;
21030;SDS011;61072;47.808;7.636;2023-05-10T09:23:06;2.75;;;0.55;;
21030;SDS011;61072;47.808;7.636;2023-05-10T09:25:33;2.75;;;0.70;;
21030;SDS011;61072;47.808;7.636;2023-05-10T09:28:00;2.58;;;0.77;;
21030;SDS011;61072;47.808;7.636;2023-05-10T09:30:29;3.83;;;0.80;;
21030;SDS011;61072;47.808;7.636;2023-05-10T09:32:57;3.20;;;0.70;;
21030;SDS011;61072;47.808;7.636;2023-05-10T09:35:29;2.75;;;0.98;;
21030;SDS011;61072;47.808;7.636;2023-05-10T09:37:58;2.13;;;0.50;;
21030;SDS011;61072;47.808;7.636;2023-05-10T09:40:27;4.05;;;0.88;;
21030;SDS011;61072;47.808;7.636;2023-05-10T09:43:00;1.25;;;0.40;;
21030;SDS011;61072;47.808;7.636;2023-05-10T09:45:33;3.08;;;0.80;;
21030;SDS011;61072;47.808;7.636;2023-05-10T09:48:03;3.75;;;0.57;;
21030;SDS011;61072;47.808;7.636;2023-05-10T09:50:31;4.78;;;0.65;;
21030;SDS011;61072;47.808;7.636;2023-05-10T09:52:59;2.38;;;0.70;;
21030;SDS011;61072;47.808;7.636;2023-05-10T09:58:10;2.25;;;0.45;;
21030;SDS011;61072;47.808;7.636;2023-05-10T10:00:38;1.15;;;0.60;;
21030;SDS011;61072;47.808;7.636;2023-05-10T10:03:06;2.75;;;0.60;;
21030;SDS011;61072;47.808;7.636;2023-05-10T10:05:40;3.72;;;0.50;;
21030;SDS011;61072;47.808;7.636;2023-05-10T10:08:08;2.28;;;0.65;;
21030;SDS011;61072;47.808;7.636;2023-05-10T10:10:36;3.42;;;1.00;;
21030;SDS011;61072;47.808;7.636;2023-05-10T10:13:02;2.03;;;0.60;;
21030;SDS011;61072;47.808;7.636;2023-05-10T10:15:30;3.08;;;0.47;;
21030;SDS011;61072;47.808;7.636;2023-05-10T10:17:59;3.78;;;0.40;;
21030;SDS011;61072;47.808;7.636;2023-05-10T10:20:26;0.75;;;0.40;;
21030;SDS011;61072;47.808;7.636;2023-05-10T10:22:54;1.38;;;0.45;;
21030;SDS011;61072;47.808;7.636;2023-05-10T10:25:21;2.45;;;0.77;;
21030;SDS011;61072;47.808;7.636;2023-05-10T10:35:55;7.28;;;0.75;;
21030;SDS011;61072;47.808;7.636;2023-05-10T10:41:02;6.18;;;1.10;;
21030;SDS011;61072;47.808;7.636;2023-05-10T10:43:33;1.70;;;0.70;;
21030;SDS011;61072;47.808;7.636;2023-05-10T10:48:40;1.83;;;0.47;;
21030;SDS011;61072;47.808;7.636;2023-05-10T10:51:07;4.70;;;1.00;;
21030;SDS011;61072;47.808;7.636;2023-05-10T10:53:37;1.27;;;0.70;;
21030;SDS011;61072;47.808;7.636;2023-05-10T10:56:07;3.70;;;0.77;;
21030;SDS011;61072;47.808;7.636;2023-05-10T10:58:38;4.15;;;0.90;;
21030;SDS011;61072;47.808;7.636;2023-05-10T11:01:10;2.38;;;0.70;;
21030;SDS011;61072;47.808;7.636;2023-05-10T11:06:29;4.22;;;0.80;;
21030;SDS011;61072;47.808;7.636;2023-05-10T11:09:10;3.72;;;0.75;;
21030;SDS011;61072;47.808;7.636;2023-05-10T11:11:51;2.17;;;0.73;;
21030;SDS011;61072;47.808;7.636;2023-05-10T11:14:21;1.83;;;0.60;;
21030;SDS011;61072;47.808;7.636;2023-05-10T11:16:48;2.20;;;0.63;;
21030;SDS011;61072;47.808;7.636;2023-05-10T11:19:16;3.25;;;0.70;;
21030;SDS011;61072;47.808;7.636;2023-05-10T11:21:50;2.60;;;0.60;;
21030;SDS011;61072;47.808;7.636;2023-05-10T11:24:29;2.15;;;0.60;;
21030;SDS011;61072;47.808;7.636;2023-05-10T11:26:56;4.05;;;0.93;;
21030;SDS011;61072;47.808;7.636;2023-05-10T11:29:23;1.80;;;0.70;;
21030;SDS011;61072;47.808;7.636;2023-05-10T11:31:52;1.42;;;0.68;;
21030;SDS011;61072;47.808;7.636;2023-05-10T11:36:57;3.97;;;0.50;;
21030;SDS011;61072;47.808;7.636;2023-05-10T11:39:27;4.28;;;0.88;;
21030;SDS011;61072;47.808;7.636;2023-05-10T11:41:58;2.75;;;0.70;;
21030;SDS011;61072;47.808;7.636;2023-05-10T11:44:31;1.45;;;0.40;;
21030;SDS011;61072;47.808;7.636;2023-05-10T11:46:59;3.17;;;0.75;;
21030;SDS011;61072;47.808;7.636;2023-05-10T11:49:29;2.35;;;0.70;;
21030;SDS011;61072;47.808;7.636;2023-05-10T11:52:06;0.93;;;0.57;;
21030;SDS011;61072;47.808;7.636;2023-05-10T11:54:33;3.20;;;0.63;;
21030;SDS011;61072;47.808;7.636;2023-05-10T11:57:03;3.65;;;0.80;;
21030;SDS011;61072;47.808;7.636;2023-05-10T11:59:30;2.53;;;0.60;;
21030;SDS011;61072;47.808;7.636;2023-05-10T12:01:57;1.15;;;0.57;;
21030;SDS011;61072;47.808;7.636;2023-05-10T12:04:24;0.98;;;0.35;;
21030;SDS011;61072;47.808;7.636;2023-05-10T12:06:51;1.58;;;0.50;;
21030;SDS011;61072;47.808;7.636;2023-05-10T12:09:18;1.38;;;0.60;;
21030;SDS011;61072;47.808;7.636;2023-05-10T12:12:05;8.50;;;0.88;;
21030;SDS011;61072;47.808;7.636;2023-05-10T12:14:33;0.70;;;0.47;;
21030;SDS011;61072;47.808;7.636;2023-05-10T12:17:01;2.30;;;0.50;;
21030;SDS011;61072;47.808;7.636;2023-05-10T12:19:27;1.65;;;0.70;;
21030;SDS011;61072;47.808;7.636;2023-05-10T12:21:54;0.77;;;0.50;;
21030;SDS011;61072;47.808;7.636;2023-05-10T12:24:21;0.90;;;0.50;;
21030;SDS011;61072;47.808;7.636;2023-05-10T12:26:48;0.55;;;0.32;;
21030;SDS011;61072;47.808;7.636;2023-05-10T12:29:17;1.15;;;0.50;;
21030;SDS011;61072;47.808;7.636;2023-05-10T12:31:57;2.00;;;0.40;;
21030;SDS011;61072;47.808;7.636;2023-05-10T12:34:34;1.33;;;0.43;;
21030;SDS011;61072;47.808;7.636;2023-05-10T12:37:04;1.23;;;0.63;;
21030;SDS011;61072;47.808;7.636;2023-05-10T12:39:41;3.00;;;0.63;;
21030;SDS011;61072;47.808;7.636;2023-05-10T12:42:11;1.55;;;0.40;;
21030;SDS011;61072;47.808;7.636;2023-05-10T12:44:38;1.40;;;0.20;;
21030;SDS011;61072;47.808;7.636;2023-05-10T12:47:05;1.15;;;0.40;;
21030;SDS011;61072;47.808;7.636;2023-05-10T12:49:32;0.40;;;0.30;;
21030;SDS011;61072;47.808;7.636;2023-05-10T12:51:59;1.27;;;0.52;;
21030;SDS011;61072;47.808;7.636;2023-05-10T12:54:25;1.20;;;0.20;;
21030;SDS011;61072;47.808;7.636;2023-05-10T12:56:52;1.70;;;0.30;;
21030;SDS011;61072;47.808;7.636;2023-05-10T12:59:19;0.40;;;0.20;;
21030;SDS011;61072;47.808;7.636;2023-05-10T13:01:46;1.10;;;0.20;;
21030;SDS011;61072;47.808;7.636;2023-05-10T13:04:12;0.93;;;0.30;;
21030;SDS011;61072;47.808;7.636;2023-05-10T13:06:39;1.75;;;0.30;;
21030;SDS011;61072;47.808;7.636;2023-05-10T13:09:06;0.98;;;0.40;;
21030;SDS011;61072;47.808;7.636;2023-05-10T13:11:33;0.30;;;0.20;;
21030;SDS011;61072;47.808;7.636;2023-05-10T13:14:00;0.45;;;0.30;;
21030;SDS011;61072;47.808;7.636;2023-05-10T13:16:26;0.88;;;0.20;;
21030;SDS011;61072;47.808;7.636;2023-05-10T13:18:53;0.20;;;0.10;;
21030;SDS011;61072;47.808;7.636;2023-05-10T13:21:20;0.38;;;0.20;;
21030;SDS011;61072;47.808;7.636;2023-05-10T13:23:47;1.10;;;0.40;;
21030;SDS011;61072;47.808;7.636;2023-05-10T13:26:13;3.05;;;0.35;;
21030;SDS011;61072;47.808;7.636;2023-05-10T13:28:40;0.80;;;0.40;;
21030;SDS011;61072;47.808;7.636;2023-05-10T13:31:07;1.70;;;0.40;;
21030;SDS011;61072;47.808;7.636;2023-05-10T13:33:34;2.35;;;0.60;;
21030;SDS011;61072;47.808;7.636;2023-05-10T13:36:01;0.98;;;0.40;;
21030;SDS011;61072;47.808;7.636;2023-05-10T13:38:27;1.05;;;0.40;;
21030;SDS011;61072;47.808;7.636;2023-05-10T13:40:54;0.55;;;0.20;;
21030;SDS011;61072;47.808;7.636;2023-05-10T13:43:21;1.65;;;0.40;;
21030;SDS011;61072;47.808;7.636;2023-05-10T13:45:48;2.47;;;0.45;;
21030;SDS011;61072;47.808;7.636;2023-05-10T13:48:14;0.50;;;0.38;;
21030;SDS011;61072;47.808;7.636;2023-05-10T13:50:42;8.00;;;1.08;;
21030;SDS011;61072;47.808;7.636;2023-05-10T13:53:09;0.30;;;0.20;;
21030;SDS011;61072;47.808;7.636;2023-05-10T13:55:36;1.15;;;0.45;;
21030;SDS011;61072;47.808;7.636;2023-05-10T13:58:03;1.23;;;0.32;;
21030;SDS011;61072;47.808;7.636;2023-05-10T14:00:29;0.50;;;0.30;;
21030;SDS011;61072;47.808;7.636;2023-05-10T14:02:56;1.85;;;0.43;;
21030;SDS011;61072;47.808;7.636;2023-05-10T14:05:23;2.05;;;0.40;;
21030;SDS011;61072;47.808;7.636;2023-05-10T14:07:51;1.20;;;0.28;;
21030;SDS011;61072;47.808;7.636;2023-05-10T14:10:18;0.45;;;0.20;;
21030;SDS011;61072;47.808;7.636;2023-05-10T14:12:44;1.25;;;0.40;;
21030;SDS011;61072;47.808;7.636;2023-05-10T14:15:11;0.98;;;0.25;;
21030;SDS011;61072;47.808;7.636;2023-05-10T14:17:38;2.05;;;0.40;;
21030;SDS011;61072;47.808;7.636;2023-05-10T14:20:05;0.77;;;0.30;;
21030;SDS011;61072;47.808;7.636;2023-05-10T14:22:33;2.08;;;0.20;;
21030;SDS011;61072;47.808;7.636;2023-05-10T14:25:00;1.48;;;0.30;;
21030;SDS011;61072;47.808;7.636;2023-05-10T14:27:27;1.10;;;0.88;;
21030;SDS011;61072;47.808;7.636;2023-05-10T14:29:54;0.82;;;0.50;;
21030;SDS011;61072;47.808;7.636;2023-05-10T14:32:20;0.70;;;0.70;;
21030;SDS011;61072;47.808;7.636;2023-05-10T14:34:47;1.27;;;0.38;;
21030;SDS011;61072;47.808;7.636;2023-05-10T14:37:14;1.25;;;0.50;;
21030;SDS011;61072;47.808;7.636;2023-05-10T14:39:41;4.15;;;1.75;;
21030;SDS011;61072;47.808;7.636;2023-05-10T14:42:08;1.58;;;0.63;;
21030;SDS011;61072;47.808;7.636;2023-05-10T14:44:35;2.03;;;1.02;;
21030;SDS011;61072;47.808;7.636;2023-05-10T14:47:02;1.55;;;0.88;;
21030;SDS011;61072;47.808;7.636;2023-05-10T14:49:28;3.50;;;0.40;;
21030;SDS011;61072;47.808;7.636;2023-05-10T14:51:55;4.13;;;0.40;;
21030;SDS011;61072;47.808;7.636;2023-05-10T14:54:22;0.82;;;0.25;;
21030;SDS011;61072;47.808;7.636;2023-05-10T14:56:49;1.92;;;0.45;;
21030;SDS011;61072;47.808;7.636;2023-05-10T14:59:16;0.75;;;0.30;;
21030;SDS011;61072;47.808;7.636;2023-05-10T15:01:43;0.60;;;0.30;;
21030;SDS011;61072;47.808;7.636;2023-05-10T15:04:10;2.03;;;0.50;;
21030;SDS011;61072;47.808;7.636;2023-05-10T15:06:40;0.65;;;0.30;;
21030;SDS011;61072;47.808;7.636;2023-05-10T15:09:07;2.00;;;0.43;;
21030;SDS011;61072;47.808;7.636;2023-05-10T15:11:33;1.77;;;0.43;;
21030;SDS011;61072;47.808;7.636;2023-05-10T15:14:00;1.00;;;0.45;;
21030;SDS011;61072;47.808;7.636;2023-05-10T15:16:28;0.47;;;0.30;;
21030;SDS011;61072;47.808;7.636;2023-05-10T15:18:55;0.93;;;0.32;;
21030;SDS011;61072;47.808;7.636;2023-05-10T15:21:21;2.38;;;0.20;;
21030;SDS011;61072;47.808;7.636;2023-05-10T15:23:48;0.73;;;0.30;;
21030;SDS011;61072;47.808;7.636;2023-05-10T15:26:15;0.57;;;0.20;;
21030;SDS011;61072;47.808;7.636;2023-05-10T15:28:41;1.08;;;0.40;;
21030;SDS011;61072;47.808;7.636;2023-05-10T15:31:09;1.95;;;0.50;;
21030;SDS011;61072;47.808;7.636;2023-05-10T15:33:36;1.08;;;0.22;;
21030;SDS011;61072;47.808;7.636;2023-05-10T15:36:04;1.10;;;0.40;;